createdAt,value
2022-08-02T00:00:35.307Z,99.90
2022-08-02T00:03:04.895Z,99.90
2022-08-02T00:05:32.913Z,99.90
2022-08-02T00:08:00.996Z,99.90
2022-08-02T00:10:30.496Z,99.90
2022-08-02T00:12:58.732Z,99.90
2022-08-02T00:15:26.833Z,99.90
2022-08-02T00:17:54.930Z,99.90
2022-08-02T00:20:24.483Z,99.90
2022-08-02T00:22:52.575Z,99.90
2022-08-02T00:25:20.772Z,99.90
2022-08-02T00:27:48.821Z,99.90
2022-08-02T00:30:16.892Z,99.90
2022-08-02T00:32:45.008Z,99.90
2022-08-02T00:35:13.088Z,99.90
2022-08-02T00:37:43.165Z,99.90
2022-08-02T00:40:12.580Z,99.90
2022-08-02T00:42:41.330Z,99.90
2022-08-02T00:45:10.528Z,99.90
2022-08-02T00:47:38.642Z,99.90
2022-08-02T00:50:07.492Z,99.90
2022-08-02T00:52:35.555Z,99.90
2022-08-02T00:55:05.631Z,99.90
2022-08-02T00:57:33.685Z,99.90
2022-08-02T01:00:01.795Z,99.90
2022-08-02T01:02:29.820Z,99.90
2022-08-02T01:04:57.857Z,99.90
2022-08-02T01:07:26.227Z,99.90
2022-08-02T01:09:54.631Z,99.90
2022-08-02T01:12:24.094Z,99.90
2022-08-02T01:14:53.778Z,99.90
2022-08-02T01:17:27.652Z,99.90
2022-08-02T01:20:06.489Z,99.90
2022-08-02T01:23:01.621Z,99.90
2022-08-02T01:26:04.081Z,99.90
2022-08-02T01:28:38.997Z,99.90
2022-08-02T01:31:15.272Z,99.90
2022-08-02T01:33:46.801Z,99.90
2022-08-02T01:36:18.375Z,99.90
2022-08-02T01:38:49.629Z,99.90
2022-08-02T01:41:22.512Z,99.90
2022-08-02T01:43:55.024Z,99.90
2022-08-02T01:46:24.206Z,99.90
2022-08-02T01:48:55.837Z,99.90
2022-08-02T01:51:39.971Z,99.90
2022-08-02T01:54:10.837Z,99.90
2022-08-02T01:56:40.084Z,99.90
2022-08-02T01:59:12.578Z,99.90
2022-08-02T02:01:41.595Z,99.90
2022-08-02T02:04:11.044Z,99.90
2022-08-02T02:06:40.070Z,99.90
2022-08-02T02:09:09.165Z,99.90
2022-08-02T02:12:06.133Z,99.90
2022-08-02T02:14:29.262Z,99.90
2022-08-02T02:17:00.210Z,99.90
2022-08-02T02:19:30.226Z,99.90
2022-08-02T02:21:58.826Z,99.90
2022-08-02T02:24:27.348Z,99.90
2022-08-02T02:26:56.110Z,99.90
2022-08-02T02:29:29.345Z,99.90
2022-08-02T02:31:59.756Z,99.90
2022-08-02T02:34:30.209Z,99.90
2022-08-02T02:37:01.450Z,99.90
2022-08-02T02:39:30.052Z,99.90
2022-08-02T02:42:03.214Z,99.90
2022-08-02T02:44:33.459Z,99.90
2022-08-02T02:47:03.059Z,99.90
2022-08-02T02:49:35.862Z,99.90
2022-08-02T02:52:05.194Z,99.90
2022-08-02T02:54:35.431Z,99.90
2022-08-02T02:57:06.170Z,99.90
2022-08-02T02:59:42.604Z,99.90
2022-08-02T03:07:48.165Z,99.90
2022-08-02T03:10:16.272Z,99.90
2022-08-02T03:12:44.401Z,99.90
2022-08-02T03:15:15.162Z,99.90
2022-08-02T03:17:44.700Z,99.90
2022-08-02T03:20:15.235Z,99.90
2022-08-02T03:22:43.737Z,99.90
2022-08-02T03:25:12.809Z,99.90
2022-08-02T03:27:41.347Z,99.90
2022-08-02T03:30:12.124Z,99.90
2022-08-02T03:32:43.894Z,99.90
2022-08-02T03:35:17.514Z,99.90
2022-08-02T03:37:48.830Z,99.90
2022-08-02T03:40:18.272Z,99.90
2022-08-02T03:42:46.657Z,99.90
2022-08-02T03:45:15.195Z,99.90
2022-08-02T03:47:45.652Z,99.90
2022-08-02T03:50:14.278Z,99.90
2022-08-02T03:52:43.487Z,99.90
2022-08-02T03:55:12.526Z,99.90
2022-08-02T03:57:41.147Z,99.90
2022-08-02T04:00:10.971Z,99.90
2022-08-02T04:02:39.003Z,99.90
2022-08-02T04:05:09.389Z,99.90
2022-08-02T04:08:34.976Z,99.90
2022-08-02T04:10:25.554Z,99.90
2022-08-02T04:12:54.361Z,99.90
2022-08-02T04:15:24.383Z,99.90
2022-08-02T04:17:57.755Z,99.90
2022-08-02T04:20:30.784Z,99.90
2022-08-02T04:23:02.703Z,99.90
2022-08-02T04:25:34.445Z,99.90
2022-08-02T04:28:16.567Z,99.90
2022-08-02T04:30:45.589Z,99.90
2022-08-02T04:33:14.257Z,99.90
2022-08-02T04:35:44.197Z,99.90
2022-08-02T04:38:14.449Z,99.90
2022-08-02T04:40:42.629Z,99.90
2022-08-02T04:43:10.650Z,99.90
2022-08-02T04:45:38.850Z,99.90
2022-08-02T04:48:07.714Z,99.90
2022-08-02T04:50:36.010Z,99.90
2022-08-02T04:53:05.540Z,99.90
2022-08-02T04:55:33.896Z,99.90
2022-08-02T04:58:04.249Z,99.90
2022-08-02T05:00:42.580Z,99.90
2022-08-02T05:03:10.659Z,99.90
2022-08-02T05:05:39.795Z,99.90
2022-08-02T05:08:09.225Z,99.90
2022-08-02T05:10:37.650Z,99.90
2022-08-02T05:13:06.763Z,99.90
2022-08-02T05:15:34.903Z,99.90
2022-08-02T05:18:03.035Z,99.90
2022-08-02T05:20:31.119Z,99.90
2022-08-02T05:22:59.142Z,99.90
2022-08-02T05:25:28.799Z,99.90
2022-08-02T05:27:56.798Z,99.90
2022-08-02T05:30:25.032Z,99.90
2022-08-02T05:32:53.639Z,99.90
2022-08-02T05:35:23.158Z,99.90
2022-08-02T05:37:52.237Z,99.90
2022-08-02T05:40:25.579Z,99.90
2022-08-02T05:42:55.736Z,99.90
2022-08-02T05:45:23.890Z,99.90
2022-08-02T05:47:52.110Z,99.90
2022-08-02T05:50:20.781Z,99.90
2022-08-02T05:52:52.946Z,99.90
2022-08-02T05:55:27.720Z,99.90
2022-08-02T05:58:04.010Z,99.90
2022-08-02T06:00:33.252Z,99.90
2022-08-02T06:03:22.930Z,99.90
2022-08-02T06:05:58.970Z,99.90
2022-08-02T06:08:34.057Z,99.90
2022-08-02T06:11:03.837Z,99.90
2022-08-02T06:13:34.253Z,99.90
2022-08-02T06:16:03.109Z,99.90
2022-08-02T06:18:34.521Z,99.90
2022-08-02T06:22:35.268Z,99.90
2022-08-02T06:23:57.385Z,99.90
2022-08-02T06:26:27.574Z,99.90
2022-08-02T06:28:58.567Z,98.90
2022-08-02T06:31:27.127Z,99.20
2022-08-02T06:33:55.248Z,99.00
2022-08-02T06:36:31.803Z,99.90
2022-08-02T06:47:17.096Z,97.30
2022-08-02T06:49:52.860Z,95.10
2022-08-02T06:52:28.318Z,94.80
2022-08-02T06:54:57.983Z,94.80
2022-08-02T06:57:26.118Z,94.50
2022-08-02T06:59:54.244Z,94.10
2022-08-02T07:02:23.954Z,94.00
2022-08-02T07:04:52.130Z,93.70
2022-08-02T07:07:20.290Z,93.00
2022-08-02T07:09:56.346Z,92.50
2022-08-02T07:12:31.466Z,92.00
2022-08-02T07:14:59.821Z,91.50
2022-08-02T07:17:29.858Z,91.10
2022-08-02T07:19:58.288Z,91.30
2022-08-02T07:22:28.215Z,90.40
2022-08-02T07:24:58.519Z,90.00
2022-08-02T07:27:27.222Z,89.70
2022-08-02T07:29:55.566Z,89.90
2022-08-02T07:32:26.623Z,89.30
2022-08-02T07:34:56.893Z,88.60
2022-08-02T07:37:53.630Z,88.40
2022-08-02T07:40:20.330Z,88.20
2022-08-02T07:42:52.186Z,87.70
2022-08-02T07:45:21.088Z,87.10
2022-08-02T07:47:49.677Z,87.80
2022-08-02T07:50:21.046Z,88.10
2022-08-02T07:52:49.703Z,89.70
2022-08-02T07:55:25.513Z,89.60
2022-08-02T07:58:11.504Z,90.10
2022-08-02T08:00:42.808Z,89.30
2022-08-02T08:03:10.892Z,88.50
2022-08-02T08:05:40.795Z,87.90
2022-08-02T08:08:12.416Z,88.30
2022-08-02T08:10:44.918Z,87.90
2022-08-02T08:13:12.988Z,86.60
2022-08-02T08:15:41.022Z,86.60
2022-08-02T08:18:09.058Z,84.60
2022-08-02T08:20:40.939Z,83.70
2022-08-02T08:23:08.939Z,83.70
2022-08-02T08:25:39.617Z,83.30
2022-08-02T08:28:09.260Z,83.50
2022-08-02T08:30:37.402Z,82.80
2022-08-02T08:33:05.450Z,82.50
2022-08-02T08:35:33.592Z,82.50
2022-08-02T08:38:07.262Z,80.00
2022-08-02T08:40:37.048Z,80.90
2022-08-02T08:43:05.285Z,79.70
2022-08-02T08:45:33.426Z,80.00
2022-08-02T08:48:02.963Z,79.60
2022-08-02T08:50:34.458Z,79.00
2022-08-02T08:53:06.797Z,79.30
2022-08-02T08:55:36.242Z,80.20
2022-08-02T08:58:05.647Z,80.90
2022-08-02T09:00:35.343Z,82.00
2022-08-02T09:03:04.718Z,80.30
2022-08-02T09:05:35.231Z,79.00
2022-08-02T09:08:05.586Z,79.10
2022-08-02T09:10:36.186Z,79.00
2022-08-02T09:13:31.338Z,78.30
2022-08-02T09:16:13.089Z,78.10
2022-08-02T09:18:45.395Z,79.50
2022-08-02T09:21:15.250Z,80.30
2022-08-02T09:23:46.986Z,79.70
2022-08-02T09:26:17.167Z,79.40
2022-08-02T09:28:47.840Z,76.70
2022-08-02T09:43:00.731Z,73.50
2022-08-02T09:45:32.931Z,73.10
2022-08-02T09:48:01.416Z,71.80
2022-08-02T09:50:29.613Z,70.90
2022-08-02T09:52:58.404Z,71.20
2022-08-02T09:55:27.575Z,69.90
2022-08-02T09:57:55.826Z,69.00
2022-08-02T10:00:43.559Z,67.90
2022-08-02T10:03:21.617Z,68.90
2022-08-02T10:05:56.013Z,67.90
2022-08-02T10:08:33.251Z,66.10
2022-08-02T10:11:02.571Z,67.90
2022-08-02T10:13:31.912Z,68.10
2022-08-02T10:16:02.568Z,68.10
2022-08-02T10:18:40.388Z,67.70
2022-08-02T10:21:14.814Z,67.40
2022-08-02T10:23:45.466Z,67.10
2022-08-02T10:26:18.648Z,68.40
2022-08-02T10:28:49.504Z,68.30
2022-08-02T10:31:23.460Z,67.50
2022-08-02T10:33:54.000Z,68.40
2022-08-02T10:36:27.097Z,69.00
2022-08-02T10:38:58.625Z,69.30
2022-08-02T10:41:46.539Z,69.30
2022-08-02T10:44:26.956Z,68.30
2022-08-02T10:47:25.031Z,68.70
2022-08-02T10:49:55.045Z,70.80
2022-08-02T10:52:24.708Z,71.20
2022-08-02T10:54:58.060Z,71.40
2022-08-02T10:57:27.819Z,72.30
2022-08-02T11:00:02.104Z,72.00
2022-08-02T11:02:46.755Z,73.30
2022-08-02T11:05:16.687Z,73.30
2022-08-02T11:07:47.895Z,73.70
2022-08-02T11:10:36.020Z,74.50
2022-08-02T11:13:08.314Z,74.50
2022-08-02T11:15:58.967Z,73.20
2022-08-02T11:19:00.747Z,72.00
2022-08-02T11:21:31.387Z,72.30
2022-08-02T11:24:30.021Z,72.80
2022-08-02T11:26:59.280Z,72.30
2022-08-02T11:29:39.186Z,72.40
2022-08-02T11:32:08.742Z,72.50
2022-08-02T11:34:38.337Z,73.20
2022-08-02T11:37:08.263Z,73.00
2022-08-02T11:39:36.333Z,72.90
2022-08-02T11:42:04.519Z,73.30
2022-08-02T11:44:42.054Z,72.60
2022-08-02T11:47:10.212Z,73.20
2022-08-02T11:49:38.805Z,72.20
2022-08-02T11:52:11.125Z,72.90
2022-08-02T11:54:42.197Z,72.60
2022-08-02T11:57:19.277Z,73.10
2022-08-02T11:59:49.354Z,73.80
2022-08-02T12:02:19.021Z,73.10
2022-08-02T12:04:57.330Z,72.90
2022-08-02T12:07:34.724Z,72.60
2022-08-02T12:10:06.883Z,71.90
2022-08-02T12:12:35.230Z,71.00
2022-08-02T12:15:03.259Z,71.10
2022-08-02T12:17:54.342Z,70.70
2022-08-02T12:20:35.649Z,71.20
2022-08-02T12:23:05.279Z,70.60
2022-08-02T12:25:35.236Z,72.00
2022-08-02T12:28:18.298Z,71.40
2022-08-02T12:30:55.436Z,71.20
2022-08-02T12:33:25.205Z,71.10
2022-08-02T12:35:53.513Z,71.20
2022-08-02T12:38:23.298Z,70.70
2022-08-02T12:40:51.472Z,70.70
2022-08-02T12:43:21.302Z,70.50
2022-08-02T12:45:53.076Z,69.60
2022-08-02T12:48:40.364Z,69.70
2022-08-02T12:51:23.382Z,70.80
2022-08-02T12:53:59.083Z,70.90
2022-08-02T12:56:32.106Z,70.50
2022-08-02T12:59:00.571Z,70.00
2022-08-02T13:01:30.069Z,69.90
2022-08-02T13:04:09.607Z,69.40
2022-08-02T13:06:44.787Z,68.90
2022-08-02T13:09:17.332Z,69.20
2022-08-02T13:11:45.904Z,69.40
2022-08-02T13:14:14.471Z,70.00
2022-08-02T13:16:43.636Z,68.70
2022-08-02T13:19:13.036Z,69.40
2022-08-02T13:22:11.364Z,68.50
2022-08-02T13:24:40.617Z,69.40
2022-08-02T13:27:20.857Z,69.50
2022-08-02T13:29:49.805Z,69.80
2022-08-02T13:32:17.977Z,69.70
2022-08-02T13:34:46.170Z,69.60
2022-08-02T13:37:14.316Z,70.60
2022-08-02T13:39:51.495Z,70.10
2022-08-02T13:42:32.202Z,69.40
2022-08-02T13:45:00.243Z,68.90
2022-08-02T13:48:04.826Z,69.10
2022-08-02T13:50:30.240Z,68.60
2022-08-02T13:52:58.299Z,69.10
2022-08-02T13:55:28.159Z,70.00
2022-08-02T13:57:56.562Z,70.60
2022-08-02T14:00:35.267Z,70.30
2022-08-02T14:03:07.802Z,70.90
2022-08-02T14:05:48.609Z,71.00
2022-08-02T14:08:18.317Z,71.40
2022-08-02T14:10:48.343Z,71.40
2022-08-02T14:13:17.246Z,71.30
2022-08-02T14:15:45.758Z,71.90
2022-08-02T14:18:15.313Z,72.10
2022-08-02T14:20:44.043Z,71.80
2022-08-02T14:23:12.165Z,72.00
2022-08-02T14:25:40.204Z,73.70
2022-08-02T14:28:09.763Z,73.00
2022-08-02T14:30:37.884Z,72.90
2022-08-02T14:33:06.029Z,73.20
2022-08-02T14:35:34.398Z,73.50
2022-08-02T14:38:02.536Z,75.20
2022-08-02T14:40:31.007Z,73.50
2022-08-02T14:43:00.514Z,73.50
2022-08-02T14:45:40.178Z,73.60
2022-08-02T14:48:10.393Z,73.60
2022-08-02T14:50:38.473Z,73.90
2022-08-02T14:53:06.509Z,74.10
2022-08-02T14:55:41.759Z,73.90
2022-08-02T14:58:09.961Z,75.20
2022-08-02T15:00:41.226Z,74.70
2022-08-02T15:03:10.507Z,75.00
2022-08-02T15:05:38.574Z,74.70
2022-08-02T15:08:07.426Z,75.80
2022-08-02T15:10:35.498Z,75.40
2022-08-02T15:13:03.554Z,75.30
2022-08-02T15:15:31.653Z,75.00
2022-08-02T15:18:01.077Z,75.20
2022-08-02T15:20:30.017Z,75.60
2022-08-02T15:23:03.458Z,75.60
2022-08-02T15:25:31.651Z,75.80
2022-08-02T15:27:59.724Z,76.00
2022-08-02T15:30:27.894Z,75.90
2022-08-02T15:32:56.033Z,76.70
2022-08-02T15:35:25.433Z,76.80
2022-08-02T15:37:54.275Z,76.90
2022-08-02T15:40:22.459Z,77.20
2022-08-02T15:42:50.557Z,77.40
2022-08-02T15:45:19.306Z,77.70
2022-08-02T15:47:50.405Z,77.30
2022-08-02T15:50:18.971Z,77.20
2022-08-02T15:52:48.808Z,77.40
2022-08-02T15:55:16.939Z,77.40
2022-08-02T15:57:45.039Z,77.20
2022-08-02T16:00:18.589Z,77.60
2022-08-02T16:02:48.011Z,77.90
2022-08-02T16:05:18.228Z,77.60
2022-08-02T16:07:48.671Z,78.00
2022-08-02T16:10:17.435Z,78.30
2022-08-02T16:12:45.819Z,78.60
2022-08-02T16:15:13.893Z,79.00
2022-08-02T16:17:51.758Z,79.10
2022-08-02T16:20:23.064Z,79.50
2022-08-02T16:22:52.480Z,79.60
2022-08-02T16:25:20.645Z,79.40
2022-08-02T16:28:06.186Z,79.30
2022-08-02T16:30:35.712Z,79.70
2022-08-02T16:33:04.110Z,80.00
2022-08-02T16:35:32.383Z,80.20
2022-08-02T16:38:01.890Z,80.50
2022-08-02T16:40:30.733Z,80.70
2022-08-02T16:42:58.931Z,80.40
2022-08-02T16:45:28.922Z,80.70
2022-08-02T16:50:48.792Z,81.10
2022-08-02T16:53:36.516Z,81.20
2022-08-02T16:56:05.912Z,81.80
2022-08-02T16:58:34.008Z,82.20
2022-08-02T17:01:02.135Z,83.20
2022-08-02T17:03:55.683Z,82.40
2022-08-02T17:06:18.413Z,82.80
2022-08-02T17:11:45.356Z,83.00
2022-08-02T17:14:14.904Z,83.40
2022-08-02T17:16:43.907Z,83.60
2022-08-02T17:19:12.437Z,83.40
2022-08-02T17:21:40.490Z,83.60
2022-08-02T17:24:09.998Z,84.10
2022-08-02T17:26:39.898Z,84.00
2022-08-02T17:29:16.256Z,84.20
2022-08-02T17:32:05.087Z,84.20
2022-08-02T17:34:35.736Z,84.50
2022-08-02T17:37:05.748Z,84.50
2022-08-02T17:39:44.337Z,84.80
2022-08-02T17:42:23.595Z,85.00
2022-08-02T17:44:53.103Z,85.00
2022-08-02T17:47:21.850Z,85.10
2022-08-02T17:49:52.710Z,85.30
2022-08-02T17:52:52.441Z,86.00
2022-08-02T17:55:14.292Z,86.20
2022-08-02T17:57:56.894Z,86.10
2022-08-02T18:00:33.804Z,86.50
2022-08-02T18:03:06.003Z,86.50
2022-08-02T18:05:40.239Z,87.00
2022-08-02T18:08:23.174Z,87.30
2022-08-02T18:10:53.616Z,87.70
2022-08-02T18:13:22.273Z,87.90
2022-08-02T18:15:52.396Z,88.00
2022-08-02T18:18:29.300Z,88.50
2022-08-02T18:20:58.428Z,88.60
2022-08-02T18:23:44.347Z,88.90
2022-08-02T18:26:20.802Z,89.20
2022-08-02T18:28:49.386Z,89.70
2022-08-02T18:31:22.810Z,89.90
2022-08-02T18:33:59.556Z,89.80
2022-08-02T18:36:30.504Z,89.90
2022-08-02T18:38:59.816Z,90.10
2022-08-02T18:41:38.107Z,90.30
2022-08-02T18:44:06.666Z,90.40
2022-08-02T18:46:35.025Z,90.50
2022-08-02T18:49:13.414Z,90.80
2022-08-02T18:51:43.488Z,90.90
2022-08-02T18:54:11.700Z,91.10
2022-08-02T18:56:47.524Z,91.10
2022-08-02T18:59:15.839Z,91.30
2022-08-02T19:01:51.160Z,91.50
2022-08-02T19:04:27.098Z,91.60
2022-08-02T19:06:56.464Z,91.90
2022-08-02T19:09:24.644Z,92.10
2022-08-02T19:11:55.417Z,92.20
2022-08-02T19:14:28.127Z,92.20
2022-08-02T19:16:57.869Z,92.30
2022-08-02T19:19:28.856Z,92.60
2022-08-02T19:22:15.863Z,92.80
2022-08-02T19:24:45.895Z,92.60
2022-08-02T19:27:20.727Z,92.90
2022-08-02T19:29:54.518Z,93.10
2022-08-02T19:32:39.692Z,93.50
2022-08-02T19:35:19.065Z,93.90
2022-08-02T19:37:59.537Z,95.00
2022-08-02T19:40:29.061Z,95.60
2022-08-02T19:44:23.830Z,96.10
2022-08-02T19:45:50.626Z,96.80
2022-08-02T19:48:23.662Z,97.60
2022-08-02T19:50:56.662Z,98.40
2022-08-02T19:53:47.406Z,99.60
2022-08-02T19:56:20.112Z,99.90
2022-08-02T19:58:51.473Z,99.90
2022-08-02T20:01:25.418Z,99.90
2022-08-02T20:04:05.022Z,99.90
2022-08-02T20:06:33.031Z,99.90
2022-08-02T20:09:01.743Z,99.90
2022-08-02T20:11:34.734Z,99.90
2022-08-02T20:14:05.406Z,99.90
2022-08-02T20:16:34.234Z,99.90
2022-08-02T20:19:02.646Z,99.90
2022-08-02T20:21:35.803Z,99.90
2022-08-02T20:24:06.758Z,99.90
2022-08-02T20:26:35.476Z,99.90
2022-08-02T20:29:05.339Z,99.90
2022-08-02T20:31:34.384Z,99.90
2022-08-02T20:34:03.020Z,99.90
2022-08-02T20:36:31.192Z,99.90
2022-08-02T20:38:59.239Z,99.90
2022-08-02T20:41:37.272Z,99.90
2022-08-02T20:44:30.154Z,99.90
2022-08-02T20:46:59.489Z,99.90
2022-08-02T20:49:40.884Z,99.90
2022-08-02T20:54:58.356Z,99.90
2022-08-02T21:05:54.902Z,99.90
2022-08-02T21:08:25.536Z,99.90
2022-08-02T21:10:55.565Z,99.90
2022-08-02T21:13:26.067Z,99.90
2022-08-02T21:15:55.757Z,99.90
2022-08-02T21:18:43.258Z,99.90
2022-08-02T21:21:11.377Z,99.90
2022-08-02T21:26:34.172Z,99.90
2022-08-02T21:29:03.544Z,99.90
2022-08-02T21:31:33.454Z,99.90
2022-08-02T21:34:21.649Z,99.90
2022-08-02T21:36:50.676Z,99.90
2022-08-02T21:39:20.684Z,99.90
2022-08-02T21:41:49.140Z,99.90
2022-08-02T21:44:18.140Z,99.90
2022-08-02T21:46:49.413Z,99.90
2022-08-02T21:49:18.052Z,99.90
2022-08-02T21:51:49.510Z,99.90
2022-08-02T21:54:21.281Z,99.90
2022-08-02T21:56:52.316Z,99.90
2022-08-02T21:59:25.222Z,99.90
2022-08-02T22:01:56.456Z,99.90
2022-08-02T22:04:25.930Z,99.90
2022-08-02T22:06:54.945Z,99.90
2022-08-02T22:09:43.695Z,99.90
2022-08-02T22:12:16.625Z,99.90
2022-08-02T22:14:49.447Z,99.90
2022-08-02T22:17:49.955Z,99.90
2022-08-02T22:20:12.611Z,99.90
2022-08-02T22:22:41.857Z,99.90
2022-08-02T22:25:26.569Z,99.90
2022-08-02T22:28:13.278Z,99.90
2022-08-02T22:30:52.562Z,99.90
2022-08-02T22:33:42.188Z,99.90
2022-08-02T22:36:14.693Z,99.90
2022-08-02T22:38:44.370Z,99.90
2022-08-02T22:41:14.823Z,99.90
2022-08-02T22:43:44.084Z,99.90
2022-08-02T22:46:15.610Z,99.90
2022-08-02T22:48:45.313Z,99.90
2022-08-02T22:58:34.852Z,81.00
2022-08-02T22:58:49.679Z,82.80
2022-08-02T22:58:56.454Z,99.90
2022-08-02T22:59:02.554Z,99.90
2022-08-02T23:03:31.987Z,99.90
2022-08-02T23:06:01.437Z,99.90
2022-08-02T23:08:29.546Z,99.90
2022-08-02T23:10:57.578Z,99.90
2022-08-02T23:13:28.340Z,99.90
2022-08-02T23:16:14.344Z,99.90
2022-08-02T23:19:00.897Z,99.90
2022-08-02T23:22:01.785Z,99.90
2022-08-02T23:24:22.627Z,99.90
2022-08-02T23:26:50.728Z,99.90
2022-08-02T23:29:18.875Z,99.90
2022-08-02T23:31:46.936Z,99.90
2022-08-02T23:34:14.993Z,99.90
2022-08-02T23:36:44.403Z,99.90
2022-08-02T23:39:12.548Z,99.90
2022-08-02T23:41:40.609Z,99.90
2022-08-02T23:44:14.197Z,99.90
2022-08-02T23:46:43.937Z,99.90
2022-08-02T23:49:12.898Z,99.90
2022-08-02T23:51:41.080Z,99.90
2022-08-02T23:54:10.849Z,99.90
2022-08-02T23:56:39.465Z,99.90
2022-08-02T23:59:07.882Z,99.90
